KPDK/PDK METAR and TAF weather

Enter ICAO airport designator
Station Type Date Time Source
KPDK METAR 2019/12/08 18:53 UTC NOAA

KPDK 081853Z 12007KT 090V160 10SM CLR 12/02 A3025 RMK AO2 SLP245 T01170017


Station Type Date Time Source
KPDK Decoded METAR 2019/12/08 18:53 UTC NOAA

ATLANTA DE KALB-PEACHTREE, GA, United States (KPDK) 33-53N 084-18W 302M
Dec 08, 2019 - 01:53 PM EST / 2019.12.08 1853 UTC
Wind: from the ESE (120 degrees) at 8 MPH (7 KT) (direction variable):0
Visibility: 10 mile(s):0
Sky conditions: clear
Temperature: 53.1 F (11.7 C)
Dew Point: 35.1 F (1.7 C)
Relative Humidity: 50%
Pressure (altimeter): 30.25 in. Hg (1024 hPa)
ob: KPDK 081853Z 12007KT 090V160 10SM CLR 12/02 A3025 RMK AO2 SLP245 T01170017
cycle: 19

Station Type Date Time Source
KPDK TAF 2019/12/08 18:51 UTC NOAA

TAF KPDK 081747Z 0818/0918 10012G18KT P6SM BKN060
FM090300 10010KT P6SM VCSH OVC025
TEMPO 0907/0911 6SM -RA BR SCT008 OVC015
FM091100 12007KT 6SM -RA BR OVC008
FM091500 15007KT 4SM -RADZ BR OVC004
FM091700 17008KT P6SM SCT008 BKN012

Example: see airport list